Startpagina
METAR-TAF:

METAR-TAF

Vliegvelden :

Bukoba, Tanzania

breedte: 01-20S, lengte: 031-49E, hoogte: 1137 m

Actueel weer

Dit bericht is 1 uur en het 11 minuten geleden gemaakt, om 09:00 UTC
Wind 9 kt uit het zuiden
Temperatuur 27°C
Vochtigheid 70%
Druk 1016 hPa
Zicht 10 km of meer
Verspreide wolken op 1900 ft
Weinig wolken op 2100 ft, Cumulonimbus.

METAR: HTBU 270900Z 17009KT 9999 SCT019 FEW021CB 27/21 Q1016

Tijdstip: 13:11 (10:11 UTC)


TAF: ontbreekt

Waarnemingen en weersverwachtingen van meer dan 4000 vliegvelden (METAR en TAF).

De beschikbare stations zijn de gele en rode punten op de kaart.

Ga met uw muis naar het station om de naam te zien.

Klik dan om waarnemingen en weersverwachtingen te zien.

kaart wijzigen: klik op de groene knoppen met een zwart kruis om in te zoomen, op de groene knop met een streepje om uit te zoomen of op de groene pijlen voor aangrenzende kaarten.


METAR-TAF: